sensor_id;sensor_type;location;lat;lon;timestamp;temperature;humidity
65036;DHT22;51603;49.300;8.880;2023-11-21T00:02:06;8.50;99.90
65036;DHT22;51603;49.300;8.880;2023-11-21T00:04:32;8.50;99.90
65036;DHT22;51603;49.300;8.880;2023-11-21T00:06:57;8.50;99.90
65036;DHT22;51603;49.300;8.880;2023-11-21T00:09:23;8.50;99.90
65036;DHT22;51603;49.300;8.880;2023-11-21T00:11:48;8.50;99.90
65036;DHT22;51603;49.300;8.880;2023-11-21T00:14:14;8.50;99.90
65036;DHT22;51603;49.300;8.880;2023-11-21T00:16:41;8.50;99.90
65036;DHT22;51603;49.300;8.880;2023-11-21T00:19:06;8.50;99.90
65036;DHT22;51603;49.300;8.880;2023-11-21T00:21:32;8.50;99.90
65036;DHT22;51603;49.300;8.880;2023-11-21T00:23:57;8.60;99.90
65036;DHT22;51603;49.300;8.880;2023-11-21T00:26:23;8.60;99.90
65036;DHT22;51603;49.300;8.880;2023-11-21T00:28:49;8.60;99.90
65036;DHT22;51603;49.300;8.880;2023-11-21T00:31:15;8.60;99.90
65036;DHT22;51603;49.300;8.880;2023-11-21T00:33:41;8.60;99.90
65036;DHT22;51603;49.300;8.880;2023-11-21T00:36:07;8.60;99.90
65036;DHT22;51603;49.300;8.880;2023-11-21T00:38:35;8.60;99.90
65036;DHT22;51603;49.300;8.880;2023-11-21T00:41:01;8.60;99.90
65036;DHT22;51603;49.300;8.880;2023-11-21T00:43:26;8.60;99.90
65036;DHT22;51603;49.300;8.880;2023-11-21T00:45:52;8.60;99.90
65036;DHT22;51603;49.300;8.880;2023-11-21T00:48:18;8.70;99.90
65036;DHT22;51603;49.300;8.880;2023-11-21T00:50:44;8.60;99.90
65036;DHT22;51603;49.300;8.880;2023-11-21T00:53:09;8.60;99.90
65036;DHT22;51603;49.300;8.880;2023-11-21T00:55:36;8.70;99.90
65036;DHT22;51603;49.300;8.880;2023-11-21T00:58:02;8.70;99.90
65036;DHT22;51603;49.300;8.880;2023-11-21T01:00:29;8.70;99.90
65036;DHT22;51603;49.300;8.880;2023-11-21T01:02:55;8.70;99.90
65036;DHT22;51603;49.300;8.880;2023-11-21T01:05:20;8.70;99.90
65036;DHT22;51603;49.300;8.880;2023-11-21T01:07:46;8.70;99.90
65036;DHT22;51603;49.300;8.880;2023-11-21T01:10:11;8.70;99.90
65036;DHT22;51603;49.300;8.880;2023-11-21T01:12:38;8.70;99.90
65036;DHT22;51603;49.300;8.880;2023-11-21T01:15:05;8.70;99.90
65036;DHT22;51603;49.300;8.880;2023-11-21T01:17:33;8.70;99.90
65036;DHT22;51603;49.300;8.880;2023-11-21T01:19:59;8.70;99.90
65036;DHT22;51603;49.300;8.880;2023-11-21T01:22:25;8.70;99.90
65036;DHT22;51603;49.300;8.880;2023-11-21T01:24:52;8.70;99.90
65036;DHT22;51603;49.300;8.880;2023-11-21T01:27:18;8.70;99.90
65036;DHT22;51603;49.300;8.880;2023-11-21T01:29:44;8.70;99.90
65036;DHT22;51603;49.300;8.880;2023-11-21T01:32:10;8.70;99.90
65036;DHT22;51603;49.300;8.880;2023-11-21T01:34:36;8.70;99.90
65036;DHT22;51603;49.300;8.880;2023-11-21T01:37:01;8.70;99.90
65036;DHT22;51603;49.300;8.880;2023-11-21T01:39:30;8.70;99.90
65036;DHT22;51603;49.300;8.880;2023-11-21T01:41:55;8.70;99.90
65036;DHT22;51603;49.300;8.880;2023-11-21T01:44:24;8.70;99.90
65036;DHT22;51603;49.300;8.880;2023-11-21T01:46:50;8.70;99.90
65036;DHT22;51603;49.300;8.880;2023-11-21T01:49:16;8.70;99.90
65036;DHT22;51603;49.300;8.880;2023-11-21T01:51:47;8.70;99.90
65036;DHT22;51603;49.300;8.880;2023-11-21T01:54:14;8.70;99.90
65036;DHT22;51603;49.300;8.880;2023-11-21T01:56:40;8.70;99.90
65036;DHT22;51603;49.300;8.880;2023-11-21T01:59:05;8.70;99.90
65036;DHT22;51603;49.300;8.880;2023-11-21T02:01:33;8.80;99.90
65036;DHT22;51603;49.300;8.880;2023-11-21T02:03:58;8.70;99.90
65036;DHT22;51603;49.300;8.880;2023-11-21T02:06:24;8.70;99.90
65036;DHT22;51603;49.300;8.880;2023-11-21T02:08:51;8.70;99.90
65036;DHT22;51603;49.300;8.880;2023-11-21T02:11:16;8.70;99.90
65036;DHT22;51603;49.300;8.880;2023-11-21T02:13:42;8.70;99.90
65036;DHT22;51603;49.300;8.880;2023-11-21T02:16:09;8.80;99.90
65036;DHT22;51603;49.300;8.880;2023-11-21T02:18:36;8.80;99.90
65036;DHT22;51603;49.300;8.880;2023-11-21T02:21:04;8.80;99.90
65036;DHT22;51603;49.300;8.880;2023-11-21T02:23:30;8.80;99.90
65036;DHT22;51603;49.300;8.880;2023-11-21T02:25:55;8.70;99.90
65036;DHT22;51603;49.300;8.880;2023-11-21T02:28:21;8.70;99.90
65036;DHT22;51603;49.300;8.880;2023-11-21T02:30:51;8.70;99.90
65036;DHT22;51603;49.300;8.880;2023-11-21T02:33:21;8.70;99.90
65036;DHT22;51603;49.300;8.880;2023-11-21T02:35:47;8.80;99.90
65036;DHT22;51603;49.300;8.880;2023-11-21T02:38:12;8.80;99.90
65036;DHT22;51603;49.300;8.880;2023-11-21T02:40:39;8.80;99.90
65036;DHT22;51603;49.300;8.880;2023-11-21T02:43:04;8.80;99.90
65036;DHT22;51603;49.300;8.880;2023-11-21T02:45:31;8.80;99.90
65036;DHT22;51603;49.300;8.880;2023-11-21T02:47:57;8.80;99.90
65036;DHT22;51603;49.300;8.880;2023-11-21T02:50:23;8.80;99.90
65036;DHT22;51603;49.300;8.880;2023-11-21T02:52:49;8.80;99.90
65036;DHT22;51603;49.300;8.880;2023-11-21T02:55:15;8.80;99.90
65036;DHT22;51603;49.300;8.880;2023-11-21T02:57:41;8.80;99.90
65036;DHT22;51603;49.300;8.880;2023-11-21T03:00:06;8.80;99.90
65036;DHT22;51603;49.300;8.880;2023-11-21T03:02:33;8.80;99.90
65036;DHT22;51603;49.300;8.880;2023-11-21T03:04:58;8.70;99.90
65036;DHT22;51603;49.300;8.880;2023-11-21T03:07:24;8.70;99.90
65036;DHT22;51603;49.300;8.880;2023-11-21T03:09:50;8.70;99.90
65036;DHT22;51603;49.300;8.880;2023-11-21T03:12:15;8.70;99.90
65036;DHT22;51603;49.300;8.880;2023-11-21T03:14:41;8.70;99.90
65036;DHT22;51603;49.300;8.880;2023-11-21T03:17:06;8.70;99.90
65036;DHT22;51603;49.300;8.880;2023-11-21T03:19:32;8.70;99.90
65036;DHT22;51603;49.300;8.880;2023-11-21T03:21:58;8.70;99.90
65036;DHT22;51603;49.300;8.880;2023-11-21T03:24:24;8.70;99.90
65036;DHT22;51603;49.300;8.880;2023-11-21T03:26:50;8.60;99.90
65036;DHT22;51603;49.300;8.880;2023-11-21T03:29:16;8.60;99.90
65036;DHT22;51603;49.300;8.880;2023-11-21T03:31:41;8.60;99.90
65036;DHT22;51603;49.300;8.880;2023-11-21T03:34:14;8.60;99.90
65036;DHT22;51603;49.300;8.880;2023-11-21T03:36:39;8.70;99.90
65036;DHT22;51603;49.300;8.880;2023-11-21T03:39:05;8.60;99.90
65036;DHT22;51603;49.300;8.880;2023-11-21T03:41:30;8.60;99.90
65036;DHT22;51603;49.300;8.880;2023-11-21T03:43:56;8.60;99.90
65036;DHT22;51603;49.300;8.880;2023-11-21T03:46:21;8.60;99.90
65036;DHT22;51603;49.300;8.880;2023-11-21T03:48:47;8.70;99.90
65036;DHT22;51603;49.300;8.880;2023-11-21T03:51:12;8.70;99.90
65036;DHT22;51603;49.300;8.880;2023-11-21T03:53:38;8.70;99.90
65036;DHT22;51603;49.300;8.880;2023-11-21T03:56:04;8.60;99.90
65036;DHT22;51603;49.300;8.880;2023-11-21T03:58:29;8.60;99.90
65036;DHT22;51603;49.300;8.880;2023-11-21T04:00:55;8.70;99.90
65036;DHT22;51603;49.300;8.880;2023-11-21T04:03:20;8.60;99.90
65036;DHT22;51603;49.300;8.880;2023-11-21T04:05:46;8.60;99.90
65036;DHT22;51603;49.300;8.880;2023-11-21T04:08:12;8.60;99.90
65036;DHT22;51603;49.300;8.880;2023-11-21T04:10:38;8.60;99.90
65036;DHT22;51603;49.300;8.880;2023-11-21T04:13:05;8.60;99.90
65036;DHT22;51603;49.300;8.880;2023-11-21T04:15:32;8.70;99.90
65036;DHT22;51603;49.300;8.880;2023-11-21T04:17:57;8.60;99.90
65036;DHT22;51603;49.300;8.880;2023-11-21T04:20:23;8.70;99.90
65036;DHT22;51603;49.300;8.880;2023-11-21T04:22:49;8.60;99.90
65036;DHT22;51603;49.300;8.880;2023-11-21T04:25:15;8.60;99.90
65036;DHT22;51603;49.300;8.880;2023-11-21T04:27:41;8.60;99.90
65036;DHT22;51603;49.300;8.880;2023-11-21T04:30:12;8.60;99.90
65036;DHT22;51603;49.300;8.880;2023-11-21T04:32:38;8.60;99.90
65036;DHT22;51603;49.300;8.880;2023-11-21T04:35:07;8.60;99.90
65036;DHT22;51603;49.300;8.880;2023-11-21T04:37:34;8.50;99.90
65036;DHT22;51603;49.300;8.880;2023-11-21T04:39:59;8.60;99.90
65036;DHT22;51603;49.300;8.880;2023-11-21T04:42:25;8.60;99.90
65036;DHT22;51603;49.300;8.880;2023-11-21T04:44:50;8.60;99.90
65036;DHT22;51603;49.300;8.880;2023-11-21T04:47:18;8.60;99.90
65036;DHT22;51603;49.300;8.880;2023-11-21T04:49:46;8.60;99.90
65036;DHT22;51603;49.300;8.880;2023-11-21T04:52:12;8.60;99.90
65036;DHT22;51603;49.300;8.880;2023-11-21T04:54:38;8.60;99.90
65036;DHT22;51603;49.300;8.880;2023-11-21T04:57:05;8.60;99.90
65036;DHT22;51603;49.300;8.880;2023-11-21T04:59:32;8.50;99.90
65036;DHT22;51603;49.300;8.880;2023-11-21T05:01:58;8.60;99.90
65036;DHT22;51603;49.300;8.880;2023-11-21T05:04:25;8.50;99.90
65036;DHT22;51603;49.300;8.880;2023-11-21T05:06:51;8.50;99.90
65036;DHT22;51603;49.300;8.880;2023-11-21T05:09:16;8.50;99.90
65036;DHT22;51603;49.300;8.880;2023-11-21T05:11:42;8.50;99.90
65036;DHT22;51603;49.300;8.880;2023-11-21T05:14:08;8.50;99.90
65036;DHT22;51603;49.300;8.880;2023-11-21T05:16:34;8.60;99.90
65036;DHT22;51603;49.300;8.880;2023-11-21T05:19:00;8.60;99.90
65036;DHT22;51603;49.300;8.880;2023-11-21T05:21:27;8.50;99.90
65036;DHT22;51603;49.300;8.880;2023-11-21T05:23:52;8.50;99.90
65036;DHT22;51603;49.300;8.880;2023-11-21T05:26:18;8.60;99.90
65036;DHT22;51603;49.300;8.880;2023-11-21T05:28:43;8.50;99.90
65036;DHT22;51603;49.300;8.880;2023-11-21T05:31:09;8.50;99.90
65036;DHT22;51603;49.300;8.880;2023-11-21T05:33:36;8.50;99.90
65036;DHT22;51603;49.300;8.880;2023-11-21T05:36:01;8.60;99.90
65036;DHT22;51603;49.300;8.880;2023-11-21T05:38:27;8.60;99.90
65036;DHT22;51603;49.300;8.880;2023-11-21T05:40:52;8.60;99.90
65036;DHT22;51603;49.300;8.880;2023-11-21T05:43:18;8.60;99.90
65036;DHT22;51603;49.300;8.880;2023-11-21T05:45:43;8.60;99.90
65036;DHT22;51603;49.300;8.880;2023-11-21T05:48:09;8.60;99.90
65036;DHT22;51603;49.300;8.880;2023-11-21T05:50:34;8.60;99.90
65036;DHT22;51603;49.300;8.880;2023-11-21T05:53:00;8.60;99.90
65036;DHT22;51603;49.300;8.880;2023-11-21T05:55:26;8.60;99.90
65036;DHT22;51603;49.300;8.880;2023-11-21T05:57:51;8.50;99.90
65036;DHT22;51603;49.300;8.880;2023-11-21T06:00:17;8.60;99.90
65036;DHT22;51603;49.300;8.880;2023-11-21T06:02:50;8.60;99.90
65036;DHT22;51603;49.300;8.880;2023-11-21T06:05:17;8.50;99.90
65036;DHT22;51603;49.300;8.880;2023-11-21T06:07:43;8.60;99.90
65036;DHT22;51603;49.300;8.880;2023-11-21T06:10:10;8.60;99.90
65036;DHT22;51603;49.300;8.880;2023-11-21T06:12:38;8.50;99.90
65036;DHT22;51603;49.300;8.880;2023-11-21T06:15:06;8.50;99.90
65036;DHT22;51603;49.300;8.880;2023-11-21T06:17:34;8.50;99.90
65036;DHT22;51603;49.300;8.880;2023-11-21T06:20:05;8.50;99.90
65036;DHT22;51603;49.300;8.880;2023-11-21T06:22:38;8.60;99.90
65036;DHT22;51603;49.300;8.880;2023-11-21T06:25:04;8.60;99.90
65036;DHT22;51603;49.300;8.880;2023-11-21T06:27:32;8.50;99.90
65036;DHT22;51603;49.300;8.880;2023-11-21T06:29:58;8.50;99.90
65036;DHT22;51603;49.300;8.880;2023-11-21T06:32:24;8.50;99.90
65036;DHT22;51603;49.300;8.880;2023-11-21T06:34:53;8.60;99.90
65036;DHT22;51603;49.300;8.880;2023-11-21T06:37:20;8.50;99.90
65036;DHT22;51603;49.300;8.880;2023-11-21T06:39:46;8.50;99.90
65036;DHT22;51603;49.300;8.880;2023-11-21T06:42:11;8.50;99.90
65036;DHT22;51603;49.300;8.880;2023-11-21T06:44:38;8.50;99.90
65036;DHT22;51603;49.300;8.880;2023-11-21T06:47:04;8.50;99.90
65036;DHT22;51603;49.300;8.880;2023-11-21T06:49:30;8.50;99.90
65036;DHT22;51603;49.300;8.880;2023-11-21T06:51:56;8.50;99.90
65036;DHT22;51603;49.300;8.880;2023-11-21T06:54:22;8.50;99.90
65036;DHT22;51603;49.300;8.880;2023-11-21T06:56:48;8.50;99.90
65036;DHT22;51603;49.300;8.880;2023-11-21T06:59:13;8.50;99.90
65036;DHT22;51603;49.300;8.880;2023-11-21T07:01:39;8.50;99.90
65036;DHT22;51603;49.300;8.880;2023-11-21T07:04:07;8.50;99.90
65036;DHT22;51603;49.300;8.880;2023-11-21T07:06:32;8.50;99.90
65036;DHT22;51603;49.300;8.880;2023-11-21T07:08:58;8.50;99.90
65036;DHT22;51603;49.300;8.880;2023-11-21T07:11:24;8.50;99.90
65036;DHT22;51603;49.300;8.880;2023-11-21T07:13:50;8.50;99.90
65036;DHT22;51603;49.300;8.880;2023-11-21T07:16:16;8.50;99.90
65036;DHT22;51603;49.300;8.880;2023-11-21T07:18:41;8.50;99.90
65036;DHT22;51603;49.300;8.880;2023-11-21T07:21:07;8.50;99.90
65036;DHT22;51603;49.300;8.880;2023-11-21T07:23:34;8.50;99.90
65036;DHT22;51603;49.300;8.880;2023-11-21T07:25:59;8.50;99.90
65036;DHT22;51603;49.300;8.880;2023-11-21T07:28:24;8.50;99.90
65036;DHT22;51603;49.300;8.880;2023-11-21T07:30:51;8.50;99.90
65036;DHT22;51603;49.300;8.880;2023-11-21T07:33:17;8.60;99.90
65036;DHT22;51603;49.300;8.880;2023-11-21T07:35:43;8.60;99.90
65036;DHT22;51603;49.300;8.880;2023-11-21T07:38:08;8.60;99.90
65036;DHT22;51603;49.300;8.880;2023-11-21T07:40:34;8.60;99.90
65036;DHT22;51603;49.300;8.880;2023-11-21T07:42:59;8.60;99.90
65036;DHT22;51603;49.300;8.880;2023-11-21T07:45:25;8.60;99.90
65036;DHT22;51603;49.300;8.880;2023-11-21T07:47:53;8.70;99.90
65036;DHT22;51603;49.300;8.880;2023-11-21T07:50:19;8.60;99.90
65036;DHT22;51603;49.300;8.880;2023-11-21T07:52:45;8.70;99.90
65036;DHT22;51603;49.300;8.880;2023-11-21T07:55:11;8.70;99.90
65036;DHT22;51603;49.300;8.880;2023-11-21T07:57:37;8.70;99.90
65036;DHT22;51603;49.300;8.880;2023-11-21T08:00:04;8.70;99.90
65036;DHT22;51603;49.300;8.880;2023-11-21T08:02:32;8.80;99.90
65036;DHT22;51603;49.300;8.880;2023-11-21T08:04:57;8.70;99.90
65036;DHT22;51603;49.300;8.880;2023-11-21T08:07:23;8.70;99.90
65036;DHT22;51603;49.300;8.880;2023-11-21T08:09:48;8.80;99.90
65036;DHT22;51603;49.300;8.880;2023-11-21T08:12:15;8.70;99.90
65036;DHT22;51603;49.300;8.880;2023-11-21T08:14:41;8.80;99.90
65036;DHT22;51603;49.300;8.880;2023-11-21T08:17:06;8.80;99.90
65036;DHT22;51603;49.300;8.880;2023-11-21T08:19:32;8.80;99.90
65036;DHT22;51603;49.300;8.880;2023-11-21T08:21:58;8.80;99.90
65036;DHT22;51603;49.300;8.880;2023-11-21T08:24:24;8.80;99.90
65036;DHT22;51603;49.300;8.880;2023-11-21T08:26:50;8.80;99.90
65036;DHT22;51603;49.300;8.880;2023-11-21T08:29:17;8.80;99.90
65036;DHT22;51603;49.300;8.880;2023-11-21T08:31:43;8.80;99.90
65036;DHT22;51603;49.300;8.880;2023-11-21T08:34:12;8.90;99.90
65036;DHT22;51603;49.300;8.880;2023-11-21T08:36:42;8.90;99.90
65036;DHT22;51603;49.300;8.880;2023-11-21T08:39:08;8.90;99.90
65036;DHT22;51603;49.300;8.880;2023-11-21T08:41:33;9.00;99.90
65036;DHT22;51603;49.300;8.880;2023-11-21T08:43:59;9.00;99.90
65036;DHT22;51603;49.300;8.880;2023-11-21T08:46:24;9.10;99.90
65036;DHT22;51603;49.300;8.880;2023-11-21T08:48:51;9.10;99.90
65036;DHT22;51603;49.300;8.880;2023-11-21T08:51:18;9.10;99.90
65036;DHT22;51603;49.300;8.880;2023-11-21T08:53:43;9.20;99.90
65036;DHT22;51603;49.300;8.880;2023-11-21T08:56:13;9.20;99.90
65036;DHT22;51603;49.300;8.880;2023-11-21T08:58:41;9.30;99.90
65036;DHT22;51603;49.300;8.880;2023-11-21T09:01:07;9.20;99.90
65036;DHT22;51603;49.300;8.880;2023-11-21T09:03:33;9.30;99.90
65036;DHT22;51603;49.300;8.880;2023-11-21T09:06:00;9.30;99.90
65036;DHT22;51603;49.300;8.880;2023-11-21T09:08:25;9.30;99.90
65036;DHT22;51603;49.300;8.880;2023-11-21T09:10:51;9.40;99.90
65036;DHT22;51603;49.300;8.880;2023-11-21T09:13:17;9.40;99.90
65036;DHT22;51603;49.300;8.880;2023-11-21T09:15:43;9.30;99.90
65036;DHT22;51603;49.300;8.880;2023-11-21T09:18:14;9.40;99.90
65036;DHT22;51603;49.300;8.880;2023-11-21T09:20:41;9.40;99.90
65036;DHT22;51603;49.300;8.880;2023-11-21T09:23:06;9.40;99.90
65036;DHT22;51603;49.300;8.880;2023-11-21T09:25:32;9.40;99.90
65036;DHT22;51603;49.300;8.880;2023-11-21T09:27:58;9.50;99.90
65036;DHT22;51603;49.300;8.880;2023-11-21T09:30:23;9.50;99.90
65036;DHT22;51603;49.300;8.880;2023-11-21T09:32:50;9.50;99.90
65036;DHT22;51603;49.300;8.880;2023-11-21T09:35:16;9.50;99.90
65036;DHT22;51603;49.300;8.880;2023-11-21T09:37:46;9.50;99.90
65036;DHT22;51603;49.300;8.880;2023-11-21T09:40:12;9.50;99.90
65036;DHT22;51603;49.300;8.880;2023-11-21T09:42:40;9.50;99.90
65036;DHT22;51603;49.300;8.880;2023-11-21T09:45:27;9.50;99.90
65036;DHT22;51603;49.300;8.880;2023-11-21T09:47:54;9.60;99.90
65036;DHT22;51603;49.300;8.880;2023-11-21T09:50:21;9.60;99.90
65036;DHT22;51603;49.300;8.880;2023-11-21T09:53:13;9.70;99.90
65036;DHT22;51603;49.300;8.880;2023-11-21T09:55:42;9.70;99.90
65036;DHT22;51603;49.300;8.880;2023-11-21T09:58:10;9.70;99.90
65036;DHT22;51603;49.300;8.880;2023-11-21T10:00:43;9.70;99.90
65036;DHT22;51603;49.300;8.880;2023-11-21T10:03:09;9.70;99.90
65036;DHT22;51603;49.300;8.880;2023-11-21T10:05:36;9.70;99.90
65036;DHT22;51603;49.300;8.880;2023-11-21T10:08:04;9.70;99.90
65036;DHT22;51603;49.300;8.880;2023-11-21T10:10:32;9.70;99.90
65036;DHT22;51603;49.300;8.880;2023-11-21T10:13:02;9.80;99.90
65036;DHT22;51603;49.300;8.880;2023-11-21T10:15:31;9.80;99.90
65036;DHT22;51603;49.300;8.880;2023-11-21T10:18:01;9.70;99.90
65036;DHT22;51603;49.300;8.880;2023-11-21T10:20:28;9.70;99.90
65036;DHT22;51603;49.300;8.880;2023-11-21T10:22:54;9.70;99.90
65036;DHT22;51603;49.300;8.880;2023-11-21T10:25:22;9.70;99.90
65036;DHT22;51603;49.300;8.880;2023-11-21T10:27:48;9.80;99.90
65036;DHT22;51603;49.300;8.880;2023-11-21T10:30:17;9.80;99.90
65036;DHT22;51603;49.300;8.880;2023-11-21T10:32:43;10.00;99.90
65036;DHT22;51603;49.300;8.880;2023-11-21T10:35:09;9.90;99.90
65036;DHT22;51603;49.300;8.880;2023-11-21T10:37:36;10.00;99.90
65036;DHT22;51603;49.300;8.880;2023-11-21T10:40:06;10.10;99.90
65036;DHT22;51603;49.300;8.880;2023-11-21T10:42:32;10.10;99.90
65036;DHT22;51603;49.300;8.880;2023-11-21T10:44:58;10.20;99.90
65036;DHT22;51603;49.300;8.880;2023-11-21T10:47:23;10.30;99.90
65036;DHT22;51603;49.300;8.880;2023-11-21T10:49:49;10.30;99.90
65036;DHT22;51603;49.300;8.880;2023-11-21T10:52:15;10.30;99.90
65036;DHT22;51603;49.300;8.880;2023-11-21T10:54:43;10.30;99.90
65036;DHT22;51603;49.300;8.880;2023-11-21T10:57:10;10.30;99.90
65036;DHT22;51603;49.300;8.880;2023-11-21T10:59:36;10.30;99.90
65036;DHT22;51603;49.300;8.880;2023-11-21T11:02:23;10.30;99.90
65036;DHT22;51603;49.300;8.880;2023-11-21T11:04:58;10.30;99.90
65036;DHT22;51603;49.300;8.880;2023-11-21T11:07:27;10.30;99.90
65036;DHT22;51603;49.300;8.880;2023-11-21T11:09:54;10.30;99.90
65036;DHT22;51603;49.300;8.880;2023-11-21T11:12:20;10.30;99.90
65036;DHT22;51603;49.300;8.880;2023-11-21T11:14:46;10.30;99.90
65036;DHT22;51603;49.300;8.880;2023-11-21T11:17:13;10.30;99.90
65036;DHT22;51603;49.300;8.880;2023-11-21T11:19:39;10.30;99.90
65036;DHT22;51603;49.300;8.880;2023-11-21T11:22:36;10.20;99.90
65036;DHT22;51603;49.300;8.880;2023-11-21T11:28:19;10.10;99.90
65036;DHT22;51603;49.300;8.880;2023-11-21T11:31:01;10.30;99.90
65036;DHT22;51603;49.300;8.880;2023-11-21T11:33:50;10.30;99.90
65036;DHT22;51603;49.300;8.880;2023-11-21T11:36:26;10.40;99.90
65036;DHT22;51603;49.300;8.880;2023-11-21T11:38:54;10.40;99.90
65036;DHT22;51603;49.300;8.880;2023-11-21T11:41:31;10.30;99.90
65036;DHT22;51603;49.300;8.880;2023-11-21T11:43:58;10.20;99.90
65036;DHT22;51603;49.300;8.880;2023-11-21T11:46:44;10.30;99.90
65036;DHT22;51603;49.300;8.880;2023-11-21T11:49:54;10.30;99.90
65036;DHT22;51603;49.300;8.880;2023-11-21T11:52:32;10.30;99.90
65036;DHT22;51603;49.300;8.880;2023-11-21T11:54:59;10.30;99.90
65036;DHT22;51603;49.300;8.880;2023-11-21T11:57:25;10.30;99.90
65036;DHT22;51603;49.300;8.880;2023-11-21T12:00:13;10.30;99.90
65036;DHT22;51603;49.300;8.880;2023-11-21T12:02:49;10.30;99.90
65036;DHT22;51603;49.300;8.880;2023-11-21T12:05:16;10.30;99.90
65036;DHT22;51603;49.300;8.880;2023-11-21T12:10:15;10.50;99.90
65036;DHT22;51603;49.300;8.880;2023-11-21T12:13:03;10.60;99.90
65036;DHT22;51603;49.300;8.880;2023-11-21T12:15:28;10.60;99.90
65036;DHT22;51603;49.300;8.880;2023-11-21T12:17:57;10.70;99.90
65036;DHT22;51603;49.300;8.880;2023-11-21T12:20:26;10.70;99.90
65036;DHT22;51603;49.300;8.880;2023-11-21T12:22:57;10.70;99.90
65036;DHT22;51603;49.300;8.880;2023-11-21T12:25:26;10.70;99.90
65036;DHT22;51603;49.300;8.880;2023-11-21T12:27:55;10.70;99.90
65036;DHT22;51603;49.300;8.880;2023-11-21T12:30:22;10.70;99.90
65036;DHT22;51603;49.300;8.880;2023-11-21T12:32:53;10.70;99.90
65036;DHT22;51603;49.300;8.880;2023-11-21T12:35:27;10.60;99.90
65036;DHT22;51603;49.300;8.880;2023-11-21T12:37:54;10.60;99.90
65036;DHT22;51603;49.300;8.880;2023-11-21T12:40:20;10.50;99.90
65036;DHT22;51603;49.300;8.880;2023-11-21T12:42:52;10.40;99.90
65036;DHT22;51603;49.300;8.880;2023-11-21T12:45:19;10.20;99.90
65036;DHT22;51603;49.300;8.880;2023-11-21T12:47:58;10.10;99.90
65036;DHT22;51603;49.300;8.880;2023-11-21T12:50:26;10.10;99.90
65036;DHT22;51603;49.300;8.880;2023-11-21T12:53:04;10.10;99.90
65036;DHT22;51603;49.300;8.880;2023-11-21T12:55:32;10.00;99.90
65036;DHT22;51603;49.300;8.880;2023-11-21T12:57:59;9.90;99.90
65036;DHT22;51603;49.300;8.880;2023-11-21T13:00:33;9.90;99.90
65036;DHT22;51603;49.300;8.880;2023-11-21T13:03:03;9.90;99.90
65036;DHT22;51603;49.300;8.880;2023-11-21T13:05:31;9.90;99.90
65036;DHT22;51603;49.300;8.880;2023-11-21T13:07:58;9.90;99.90
65036;DHT22;51603;49.300;8.880;2023-11-21T13:10:26;9.90;99.90
65036;DHT22;51603;49.300;8.880;2023-11-21T13:12:55;9.90;99.90
65036;DHT22;51603;49.300;8.880;2023-11-21T13:15:23;9.90;99.90
65036;DHT22;51603;49.300;8.880;2023-11-21T13:17:50;10.00;99.90
65036;DHT22;51603;49.300;8.880;2023-11-21T13:20:17;10.00;99.90
65036;DHT22;51603;49.300;8.880;2023-11-21T13:22:50;10.10;99.90
65036;DHT22;51603;49.300;8.880;2023-11-21T13:25:19;10.10;99.90
65036;DHT22;51603;49.300;8.880;2023-11-21T13:27:45;10.10;99.90
65036;DHT22;51603;49.300;8.880;2023-11-21T13:30:13;10.10;99.90
65036;DHT22;51603;49.300;8.880;2023-11-21T13:32:41;10.10;99.90
65036;DHT22;51603;49.300;8.880;2023-11-21T13:35:07;10.10;99.90
65036;DHT22;51603;49.300;8.880;2023-11-21T13:37:37;10.10;99.90
65036;DHT22;51603;49.300;8.880;2023-11-21T13:40:04;10.10;99.90
65036;DHT22;51603;49.300;8.880;2023-11-21T13:42:40;10.20;99.90
65036;DHT22;51603;49.300;8.880;2023-11-21T13:45:06;10.20;99.90
65036;DHT22;51603;49.300;8.880;2023-11-21T13:47:32;10.20;99.90
65036;DHT22;51603;49.300;8.880;2023-11-21T13:49:59;10.20;99.90
65036;DHT22;51603;49.300;8.880;2023-11-21T13:52:26;10.20;99.90
65036;DHT22;51603;49.300;8.880;2023-11-21T13:54:53;10.20;99.90
65036;DHT22;51603;49.300;8.880;2023-11-21T13:57:19;10.30;99.90
65036;DHT22;51603;49.300;8.880;2023-11-21T13:59:45;10.30;99.90
65036;DHT22;51603;49.300;8.880;2023-11-21T14:02:11;10.20;99.90
65036;DHT22;51603;49.300;8.880;2023-11-21T14:04:43;10.20;99.90
65036;DHT22;51603;49.300;8.880;2023-11-21T14:07:21;10.10;99.90
65036;DHT22;51603;49.300;8.880;2023-11-21T14:10:02;10.10;99.90
65036;DHT22;51603;49.300;8.880;2023-11-21T14:12:28;10.00;99.90
65036;DHT22;51603;49.300;8.880;2023-11-21T14:14:54;10.00;99.90
65036;DHT22;51603;49.300;8.880;2023-11-21T14:17:20;10.00;99.90
65036;DHT22;51603;49.300;8.880;2023-11-21T14:19:49;10.00;99.90
65036;DHT22;51603;49.300;8.880;2023-11-21T14:22:14;10.00;99.90
65036;DHT22;51603;49.300;8.880;2023-11-21T14:24:40;10.00;99.90
65036;DHT22;51603;49.300;8.880;2023-11-21T14:27:13;10.00;99.90
65036;DHT22;51603;49.300;8.880;2023-11-21T14:29:38;9.90;99.90
65036;DHT22;51603;49.300;8.880;2023-11-21T14:32:07;9.90;99.90
65036;DHT22;51603;49.300;8.880;2023-11-21T14:34:33;9.90;99.90
65036;DHT22;51603;49.300;8.880;2023-11-21T14:36:58;9.90;99.90
65036;DHT22;51603;49.300;8.880;2023-11-21T14:39:24;9.90;99.90
65036;DHT22;51603;49.300;8.880;2023-11-21T14:41:53;9.90;99.90
65036;DHT22;51603;49.300;8.880;2023-11-21T14:44:21;9.90;99.90
65036;DHT22;51603;49.300;8.880;2023-11-21T14:46:50;9.90;99.90
65036;DHT22;51603;49.300;8.880;2023-11-21T14:49:16;9.90;99.90
65036;DHT22;51603;49.300;8.880;2023-11-21T14:51:52;9.90;99.90
65036;DHT22;51603;49.300;8.880;2023-11-21T14:54:32;9.80;99.90
65036;DHT22;51603;49.300;8.880;2023-11-21T14:57:12;9.80;99.90
65036;DHT22;51603;49.300;8.880;2023-11-21T14:59:45;9.90;99.90
65036;DHT22;51603;49.300;8.880;2023-11-21T15:02:20;9.90;99.90
65036;DHT22;51603;49.300;8.880;2023-11-21T15:04:48;9.90;99.90
65036;DHT22;51603;49.300;8.880;2023-11-21T15:07:17;9.80;99.90
65036;DHT22;51603;49.300;8.880;2023-11-21T15:09:42;9.80;99.90
65036;DHT22;51603;49.300;8.880;2023-11-21T15:12:09;9.70;99.90
65036;DHT22;51603;49.300;8.880;2023-11-21T15:14:42;9.70;99.90
65036;DHT22;51603;49.300;8.880;2023-11-21T15:17:08;9.60;99.90
65036;DHT22;51603;49.300;8.880;2023-11-21T15:19:34;9.60;99.90
65036;DHT22;51603;49.300;8.880;2023-11-21T15:22:01;9.60;99.90
65036;DHT22;51603;49.300;8.880;2023-11-21T15:24:27;9.60;99.90
65036;DHT22;51603;49.300;8.880;2023-11-21T15:26:53;9.50;99.90
65036;DHT22;51603;49.300;8.880;2023-11-21T15:29:19;9.50;99.90
65036;DHT22;51603;49.300;8.880;2023-11-21T15:31:46;9.50;99.90
65036;DHT22;51603;49.300;8.880;2023-11-21T15:34:14;9.50;99.90
65036;DHT22;51603;49.300;8.880;2023-11-21T15:36:40;9.50;99.90
65036;DHT22;51603;49.300;8.880;2023-11-21T15:39:05;9.50;99.90
65036;DHT22;51603;49.300;8.880;2023-11-21T15:41:32;9.40;99.90
65036;DHT22;51603;49.300;8.880;2023-11-21T15:43:58;9.40;99.90
65036;DHT22;51603;49.300;8.880;2023-11-21T15:46:23;9.40;99.90
65036;DHT22;51603;49.300;8.880;2023-11-21T15:48:49;9.30;99.90
65036;DHT22;51603;49.300;8.880;2023-11-21T15:51:20;9.30;99.90